sensor_id;sensor_type;location;lat;lon;timestamp;P1;durP1;ratioP1;P2;durP2;ratioP2
12970;SDS011;6550;48.650;8.774;2023-02-25T00:01:37;2.60;;;2.35;;
12970;SDS011;6550;48.650;8.774;2023-02-25T00:04:03;3.13;;;2.53;;
12970;SDS011;6550;48.650;8.774;2023-02-25T00:06:35;2.67;;;2.33;;
12970;SDS011;6550;48.650;8.774;2023-02-25T00:09:02;4.57;;;2.50;;
12970;SDS011;6550;48.650;8.774;2023-02-25T00:11:36;5.97;;;2.70;;
12970;SDS011;6550;48.650;8.774;2023-02-25T00:14:03;2.43;;;2.23;;
12970;SDS011;6550;48.650;8.774;2023-02-25T00:16:36;2.90;;;2.40;;
12970;SDS011;6550;48.650;8.774;2023-02-25T00:19:03;3.57;;;2.33;;
12970;SDS011;6550;48.650;8.774;2023-02-25T00:21:31;3.87;;;3.00;;
12970;SDS011;6550;48.650;8.774;2023-02-25T00:24:00;3.43;;;2.70;;
12970;SDS011;6550;48.650;8.774;2023-02-25T00:26:41;5.10;;;2.60;;
12970;SDS011;6550;48.650;8.774;2023-02-25T00:29:08;2.90;;;2.50;;
12970;SDS011;6550;48.650;8.774;2023-02-25T00:31:34;3.93;;;2.70;;
12970;SDS011;6550;48.650;8.774;2023-02-25T00:34:04;4.33;;;2.73;;
12970;SDS011;6550;48.650;8.774;2023-02-25T00:36:35;4.05;;;2.95;;
12970;SDS011;6550;48.650;8.774;2023-02-25T00:39:07;3.97;;;2.70;;
12970;SDS011;6550;48.650;8.774;2023-02-25T00:41:34;5.73;;;3.07;;
12970;SDS011;6550;48.650;8.774;2023-02-25T00:44:01;3.50;;;2.70;;
12970;SDS011;6550;48.650;8.774;2023-02-25T00:46:34;3.33;;;2.53;;
12970;SDS011;6550;48.650;8.774;2023-02-25T00:49:03;3.17;;;2.60;;
12970;SDS011;6550;48.650;8.774;2023-02-25T00:51:31;3.03;;;2.63;;
12970;SDS011;6550;48.650;8.774;2023-02-25T00:54:00;2.63;;;2.43;;
12970;SDS011;6550;48.650;8.774;2023-02-25T00:56:28;5.47;;;2.60;;
12970;SDS011;6550;48.650;8.774;2023-02-25T00:58:58;3.10;;;2.63;;
12970;SDS011;6550;48.650;8.774;2023-02-25T01:03:56;3.17;;;2.67;;
12970;SDS011;6550;48.650;8.774;2023-02-25T01:06:27;4.67;;;3.30;;
12970;SDS011;6550;48.650;8.774;2023-02-25T01:08:56;3.57;;;2.90;;
12970;SDS011;6550;48.650;8.774;2023-02-25T01:11:29;2.97;;;2.50;;
12970;SDS011;6550;48.650;8.774;2023-02-25T01:14:02;3.33;;;2.80;;
12970;SDS011;6550;48.650;8.774;2023-02-25T01:16:34;4.90;;;2.80;;
12970;SDS011;6550;48.650;8.774;2023-02-25T01:19:11;5.10;;;2.80;;
12970;SDS011;6550;48.650;8.774;2023-02-25T01:21:41;5.80;;;2.77;;
12970;SDS011;6550;48.650;8.774;2023-02-25T01:24:10;3.77;;;2.90;;
12970;SDS011;6550;48.650;8.774;2023-02-25T01:26:40;4.53;;;2.77;;
12970;SDS011;6550;48.650;8.774;2023-02-25T01:29:12;3.47;;;2.30;;
12970;SDS011;6550;48.650;8.774;2023-02-25T01:31:40;4.77;;;2.70;;
12970;SDS011;6550;48.650;8.774;2023-02-25T01:34:10;4.47;;;2.77;;
12970;SDS011;6550;48.650;8.774;2023-02-25T01:36:43;5.43;;;2.83;;
12970;SDS011;6550;48.650;8.774;2023-02-25T01:39:13;6.53;;;3.00;;
12970;SDS011;6550;48.650;8.774;2023-02-25T01:41:41;4.03;;;2.60;;
12970;SDS011;6550;48.650;8.774;2023-02-25T01:44:10;5.00;;;2.90;;
12970;SDS011;6550;48.650;8.774;2023-02-25T01:46:47;3.67;;;2.87;;
12970;SDS011;6550;48.650;8.774;2023-02-25T01:52:05;3.23;;;2.70;;
12970;SDS011;6550;48.650;8.774;2023-02-25T01:54:38;4.17;;;3.40;;
12970;SDS011;6550;48.650;8.774;2023-02-25T01:57:11;5.87;;;3.00;;
12970;SDS011;6550;48.650;8.774;2023-02-25T01:59:40;4.70;;;3.73;;
12970;SDS011;6550;48.650;8.774;2023-02-25T02:02:08;5.28;;;3.53;;
12970;SDS011;6550;48.650;8.774;2023-02-25T02:04:38;4.67;;;3.50;;
12970;SDS011;6550;48.650;8.774;2023-02-25T02:07:10;5.40;;;3.50;;
12970;SDS011;6550;48.650;8.774;2023-02-25T02:09:39;4.47;;;3.33;;
12970;SDS011;6550;48.650;8.774;2023-02-25T02:12:22;4.60;;;3.53;;
12970;SDS011;6550;48.650;8.774;2023-02-25T02:14:51;6.07;;;4.10;;
12970;SDS011;6550;48.650;8.774;2023-02-25T02:22:48;5.03;;;3.70;;
12970;SDS011;6550;48.650;8.774;2023-02-25T02:33:45;4.27;;;3.20;;
12970;SDS011;6550;48.650;8.774;2023-02-25T02:41:46;4.23;;;3.60;;
12970;SDS011;6550;48.650;8.774;2023-02-25T02:44:36;5.10;;;3.53;;
12970;SDS011;6550;48.650;8.774;2023-02-25T02:47:11;9.37;;;3.63;;
12970;SDS011;6550;48.650;8.774;2023-02-25T02:49:56;3.83;;;3.23;;
12970;SDS011;6550;48.650;8.774;2023-02-25T02:52:28;4.63;;;3.27;;
12970;SDS011;6550;48.650;8.774;2023-02-25T02:55:02;3.47;;;3.13;;
12970;SDS011;6550;48.650;8.774;2023-02-25T02:57:36;3.77;;;3.37;;
12970;SDS011;6550;48.650;8.774;2023-02-25T03:00:07;6.37;;;3.53;;
12970;SDS011;6550;48.650;8.774;2023-02-25T03:02:38;5.57;;;3.47;;
12970;SDS011;6550;48.650;8.774;2023-02-25T03:05:08;5.00;;;3.30;;
12970;SDS011;6550;48.650;8.774;2023-02-25T03:07:47;4.33;;;3.70;;
12970;SDS011;6550;48.650;8.774;2023-02-25T03:10:40;6.10;;;4.17;;
12970;SDS011;6550;48.650;8.774;2023-02-25T03:13:10;6.63;;;3.90;;
12970;SDS011;6550;48.650;8.774;2023-02-25T03:15:40;4.50;;;3.70;;
12970;SDS011;6550;48.650;8.774;2023-02-25T03:18:30;5.47;;;3.60;;
12970;SDS011;6550;48.650;8.774;2023-02-25T03:21:01;4.07;;;3.30;;
12970;SDS011;6550;48.650;8.774;2023-02-25T03:23:32;4.40;;;3.63;;
12970;SDS011;6550;48.650;8.774;2023-02-25T03:26:10;5.10;;;4.00;;
12970;SDS011;6550;48.650;8.774;2023-02-25T03:28:43;6.20;;;3.30;;
12970;SDS011;6550;48.650;8.774;2023-02-25T03:31:24;6.60;;;3.43;;
12970;SDS011;6550;48.650;8.774;2023-02-25T03:34:06;4.17;;;3.20;;
12970;SDS011;6550;48.650;8.774;2023-02-25T03:36:47;4.43;;;3.60;;
12970;SDS011;6550;48.650;8.774;2023-02-25T03:39:28;3.97;;;3.13;;
12970;SDS011;6550;48.650;8.774;2023-02-25T03:42:00;5.33;;;3.20;;
12970;SDS011;6550;48.650;8.774;2023-02-25T03:44:35;4.50;;;3.92;;
12970;SDS011;6550;48.650;8.774;2023-02-25T03:47:07;5.90;;;3.80;;
12970;SDS011;6550;48.650;8.774;2023-02-25T03:49:37;4.87;;;3.40;;
12970;SDS011;6550;48.650;8.774;2023-02-25T03:52:24;5.20;;;3.47;;
12970;SDS011;6550;48.650;8.774;2023-02-25T03:54:53;7.93;;;3.50;;
12970;SDS011;6550;48.650;8.774;2023-02-25T03:57:25;4.00;;;3.13;;
12970;SDS011;6550;48.650;8.774;2023-02-25T03:59:59;5.87;;;3.40;;
12970;SDS011;6550;48.650;8.774;2023-02-25T04:02:30;6.03;;;3.60;;
12970;SDS011;6550;48.650;8.774;2023-02-25T04:05:01;4.37;;;3.47;;
12970;SDS011;6550;48.650;8.774;2023-02-25T04:07:30;3.97;;;3.20;;
12970;SDS011;6550;48.650;8.774;2023-02-25T04:09:59;5.67;;;3.27;;
12970;SDS011;6550;48.650;8.774;2023-02-25T04:12:30;4.70;;;3.53;;
12970;SDS011;6550;48.650;8.774;2023-02-25T04:14:57;6.23;;;3.47;;
12970;SDS011;6550;48.650;8.774;2023-02-25T04:17:24;5.60;;;3.70;;
12970;SDS011;6550;48.650;8.774;2023-02-25T04:19:55;6.67;;;3.60;;
12970;SDS011;6550;48.650;8.774;2023-02-25T04:22:24;3.73;;;3.33;;
12970;SDS011;6550;48.650;8.774;2023-02-25T04:24:51;3.50;;;3.20;;
12970;SDS011;6550;48.650;8.774;2023-02-25T04:27:18;4.97;;;3.67;;
12970;SDS011;6550;48.650;8.774;2023-02-25T04:29:45;5.80;;;3.40;;
12970;SDS011;6550;48.650;8.774;2023-02-25T04:32:12;5.90;;;3.40;;
12970;SDS011;6550;48.650;8.774;2023-02-25T04:34:41;4.80;;;2.93;;
12970;SDS011;6550;48.650;8.774;2023-02-25T04:37:10;3.67;;;2.97;;
12970;SDS011;6550;48.650;8.774;2023-02-25T04:39:37;3.70;;;3.03;;
12970;SDS011;6550;48.650;8.774;2023-02-25T04:42:06;4.43;;;2.90;;
12970;SDS011;6550;48.650;8.774;2023-02-25T04:44:33;2.80;;;2.60;;
12970;SDS011;6550;48.650;8.774;2023-02-25T04:47:03;4.20;;;2.80;;
12970;SDS011;6550;48.650;8.774;2023-02-25T04:49:30;3.87;;;2.67;;
12970;SDS011;6550;48.650;8.774;2023-02-25T04:52:10;3.22;;;2.67;;
12970;SDS011;6550;48.650;8.774;2023-02-25T04:54:42;2.60;;;2.40;;
12970;SDS011;6550;48.650;8.774;2023-02-25T04:57:11;4.73;;;2.70;;
12970;SDS011;6550;48.650;8.774;2023-02-25T04:59:39;3.77;;;2.33;;
12970;SDS011;6550;48.650;8.774;2023-02-25T05:02:08;3.43;;;2.30;;
12970;SDS011;6550;48.650;8.774;2023-02-25T05:04:35;4.23;;;2.33;;
12970;SDS011;6550;48.650;8.774;2023-02-25T05:07:05;4.87;;;2.27;;
12970;SDS011;6550;48.650;8.774;2023-02-25T05:09:33;3.83;;;2.40;;
12970;SDS011;6550;48.650;8.774;2023-02-25T05:12:00;4.17;;;2.67;;
12970;SDS011;6550;48.650;8.774;2023-02-25T05:14:29;6.77;;;2.23;;
12970;SDS011;6550;48.650;8.774;2023-02-25T05:16:58;4.27;;;2.33;;
12970;SDS011;6550;48.650;8.774;2023-02-25T05:19:24;3.50;;;2.23;;
12970;SDS011;6550;48.650;8.774;2023-02-25T05:21:52;4.07;;;2.03;;
12970;SDS011;6550;48.650;8.774;2023-02-25T05:24:19;5.00;;;1.90;;
12970;SDS011;6550;48.650;8.774;2023-02-25T05:26:48;3.27;;;2.00;;
12970;SDS011;6550;48.650;8.774;2023-02-25T05:29:16;2.30;;;1.90;;
12970;SDS011;6550;48.650;8.774;2023-02-25T05:31:43;1.70;;;1.53;;
12970;SDS011;6550;48.650;8.774;2023-02-25T05:34:10;3.97;;;2.00;;
12970;SDS011;6550;48.650;8.774;2023-02-25T05:36:37;4.73;;;1.60;;
12970;SDS011;6550;48.650;8.774;2023-02-25T05:39:05;1.77;;;1.67;;
12970;SDS011;6550;48.650;8.774;2023-02-25T05:41:34;3.73;;;1.87;;
12970;SDS011;6550;48.650;8.774;2023-02-25T05:44:01;3.00;;;1.77;;
12970;SDS011;6550;48.650;8.774;2023-02-25T05:46:28;5.20;;;1.60;;
12970;SDS011;6550;48.650;8.774;2023-02-25T05:48:55;2.90;;;1.60;;
12970;SDS011;6550;48.650;8.774;2023-02-25T05:51:24;2.10;;;1.37;;
12970;SDS011;6550;48.650;8.774;2023-02-25T05:53:53;5.53;;;1.53;;
12970;SDS011;6550;48.650;8.774;2023-02-25T05:56:23;2.00;;;1.40;;
12970;SDS011;6550;48.650;8.774;2023-02-25T05:58:53;1.60;;;1.40;;
12970;SDS011;6550;48.650;8.774;2023-02-25T06:01:22;4.23;;;1.43;;
12970;SDS011;6550;48.650;8.774;2023-02-25T06:03:54;3.97;;;1.60;;
12970;SDS011;6550;48.650;8.774;2023-02-25T06:06:25;2.40;;;1.50;;
12970;SDS011;6550;48.650;8.774;2023-02-25T06:08:58;2.30;;;1.40;;
12970;SDS011;6550;48.650;8.774;2023-02-25T06:11:26;4.33;;;1.70;;
12970;SDS011;6550;48.650;8.774;2023-02-25T06:13:55;3.93;;;1.60;;
12970;SDS011;6550;48.650;8.774;2023-02-25T06:16:23;2.63;;;1.30;;
12970;SDS011;6550;48.650;8.774;2023-02-25T06:18:58;3.80;;;1.38;;
12970;SDS011;6550;48.650;8.774;2023-02-25T06:21:26;5.30;;;1.97;;
12970;SDS011;6550;48.650;8.774;2023-02-25T06:23:55;2.40;;;0.90;;
12970;SDS011;6550;48.650;8.774;2023-02-25T06:26:22;2.37;;;1.23;;
12970;SDS011;6550;48.650;8.774;2023-02-25T06:28:51;3.63;;;1.13;;
12970;SDS011;6550;48.650;8.774;2023-02-25T06:31:21;1.70;;;1.13;;
12970;SDS011;6550;48.650;8.774;2023-02-25T06:33:49;2.90;;;1.60;;
12970;SDS011;6550;48.650;8.774;2023-02-25T06:36:16;1.87;;;1.30;;
12970;SDS011;6550;48.650;8.774;2023-02-25T06:38:46;2.10;;;1.27;;
12970;SDS011;6550;48.650;8.774;2023-02-25T06:41:17;3.30;;;1.77;;
12970;SDS011;6550;48.650;8.774;2023-02-25T06:43:50;1.73;;;1.20;;
12970;SDS011;6550;48.650;8.774;2023-02-25T06:46:19;2.07;;;1.30;;
12970;SDS011;6550;48.650;8.774;2023-02-25T06:48:48;1.23;;;1.07;;
12970;SDS011;6550;48.650;8.774;2023-02-25T06:51:15;2.20;;;1.00;;
12970;SDS011;6550;48.650;8.774;2023-02-25T06:53:42;1.50;;;1.07;;
12970;SDS011;6550;48.650;8.774;2023-02-25T06:56:13;3.23;;;1.23;;
12970;SDS011;6550;48.650;8.774;2023-02-25T06:58:45;1.90;;;1.20;;
12970;SDS011;6550;48.650;8.774;2023-02-25T07:01:13;3.20;;;1.43;;
12970;SDS011;6550;48.650;8.774;2023-02-25T07:03:41;2.93;;;1.10;;
12970;SDS011;6550;48.650;8.774;2023-02-25T07:06:09;1.40;;;1.13;;
12970;SDS011;6550;48.650;8.774;2023-02-25T07:08:36;4.40;;;1.30;;
12970;SDS011;6550;48.650;8.774;2023-02-25T07:13:47;2.60;;;1.23;;
12970;SDS011;6550;48.650;8.774;2023-02-25T07:16:17;1.95;;;1.30;;
12970;SDS011;6550;48.650;8.774;2023-02-25T07:18:46;3.00;;;1.50;;
12970;SDS011;6550;48.650;8.774;2023-02-25T07:21:16;3.07;;;1.20;;
12970;SDS011;6550;48.650;8.774;2023-02-25T07:23:43;1.63;;;1.20;;
12970;SDS011;6550;48.650;8.774;2023-02-25T07:26:12;1.80;;;1.10;;
12970;SDS011;6550;48.650;8.774;2023-02-25T07:28:39;3.80;;;1.50;;
12970;SDS011;6550;48.650;8.774;2023-02-25T07:31:14;2.60;;;1.67;;
12970;SDS011;6550;48.650;8.774;2023-02-25T07:33:47;4.07;;;1.80;;
12970;SDS011;6550;48.650;8.774;2023-02-25T07:36:16;2.07;;;1.63;;
12970;SDS011;6550;48.650;8.774;2023-02-25T07:38:45;2.07;;;1.30;;
12970;SDS011;6550;48.650;8.774;2023-02-25T07:41:15;3.43;;;1.60;;
12970;SDS011;6550;48.650;8.774;2023-02-25T07:43:49;1.73;;;1.30;;
12970;SDS011;6550;48.650;8.774;2023-02-25T07:46:16;1.50;;;1.30;;
12970;SDS011;6550;48.650;8.774;2023-02-25T07:48:43;3.33;;;1.60;;
12970;SDS011;6550;48.650;8.774;2023-02-25T07:51:11;2.78;;;1.40;;
12970;SDS011;6550;48.650;8.774;2023-02-25T07:53:41;1.67;;;1.20;;
12970;SDS011;6550;48.650;8.774;2023-02-25T07:56:08;5.27;;;1.33;;
12970;SDS011;6550;48.650;8.774;2023-02-25T07:58:35;3.27;;;1.40;;
12970;SDS011;6550;48.650;8.774;2023-02-25T08:01:06;1.73;;;1.10;;
12970;SDS011;6550;48.650;8.774;2023-02-25T08:03:34;6.07;;;1.30;;
12970;SDS011;6550;48.650;8.774;2023-02-25T08:06:03;3.10;;;1.48;;
12970;SDS011;6550;48.650;8.774;2023-02-25T08:08:33;2.97;;;1.30;;
12970;SDS011;6550;48.650;8.774;2023-02-25T08:11:04;2.37;;;1.50;;
12970;SDS011;6550;48.650;8.774;2023-02-25T08:13:35;5.57;;;2.00;;
12970;SDS011;6550;48.650;8.774;2023-02-25T08:16:03;2.07;;;1.27;;
12970;SDS011;6550;48.650;8.774;2023-02-25T08:18:35;3.63;;;1.57;;
12970;SDS011;6550;48.650;8.774;2023-02-25T08:21:03;3.60;;;1.60;;
12970;SDS011;6550;48.650;8.774;2023-02-25T08:23:35;4.93;;;2.20;;
12970;SDS011;6550;48.650;8.774;2023-02-25T08:26:01;3.90;;;2.00;;
12970;SDS011;6550;48.650;8.774;2023-02-25T08:28:29;2.67;;;2.00;;
12970;SDS011;6550;48.650;8.774;2023-02-25T08:31:02;3.67;;;1.93;;
12970;SDS011;6550;48.650;8.774;2023-02-25T08:33:37;5.63;;;1.57;;
12970;SDS011;6550;48.650;8.774;2023-02-25T08:36:13;2.57;;;1.40;;
12970;SDS011;6550;48.650;8.774;2023-02-25T08:38:51;2.00;;;1.73;;
12970;SDS011;6550;48.650;8.774;2023-02-25T08:41:19;3.15;;;1.65;;
12970;SDS011;6550;48.650;8.774;2023-02-25T08:43:51;2.70;;;1.60;;
12970;SDS011;6550;48.650;8.774;2023-02-25T08:46:20;2.83;;;1.70;;
12970;SDS011;6550;48.650;8.774;2023-02-25T08:48:52;1.87;;;1.33;;
12970;SDS011;6550;48.650;8.774;2023-02-25T08:51:22;3.03;;;1.57;;
12970;SDS011;6550;48.650;8.774;2023-02-25T08:54:03;3.03;;;1.40;;
12970;SDS011;6550;48.650;8.774;2023-02-25T08:56:32;1.97;;;1.40;;
12970;SDS011;6550;48.650;8.774;2023-02-25T08:59:03;3.03;;;1.37;;
12970;SDS011;6550;48.650;8.774;2023-02-25T09:01:30;2.03;;;1.33;;
12970;SDS011;6550;48.650;8.774;2023-02-25T09:04:17;2.40;;;1.60;;
12970;SDS011;6550;48.650;8.774;2023-02-25T09:06:46;4.97;;;1.50;;
12970;SDS011;6550;48.650;8.774;2023-02-25T09:09:15;2.27;;;1.50;;
12970;SDS011;6550;48.650;8.774;2023-02-25T09:11:43;1.93;;;1.30;;
12970;SDS011;6550;48.650;8.774;2023-02-25T09:14:13;1.95;;;1.25;;
12970;SDS011;6550;48.650;8.774;2023-02-25T09:16:43;3.57;;;0.97;;
12970;SDS011;6550;48.650;8.774;2023-02-25T09:19:09;2.33;;;1.30;;
12970;SDS011;6550;48.650;8.774;2023-02-25T09:21:40;2.47;;;1.23;;
12970;SDS011;6550;48.650;8.774;2023-02-25T09:24:09;1.93;;;1.10;;
12970;SDS011;6550;48.650;8.774;2023-02-25T09:26:41;2.43;;;1.10;;
12970;SDS011;6550;48.650;8.774;2023-02-25T09:29:08;1.37;;;1.00;;
12970;SDS011;6550;48.650;8.774;2023-02-25T09:31:35;2.80;;;1.35;;
12970;SDS011;6550;48.650;8.774;2023-02-25T09:34:06;2.70;;;1.23;;
12970;SDS011;6550;48.650;8.774;2023-02-25T09:36:35;3.97;;;1.27;;
12970;SDS011;6550;48.650;8.774;2023-02-25T09:39:02;2.03;;;1.20;;
12970;SDS011;6550;48.650;8.774;2023-02-25T09:44:05;3.57;;;1.40;;
12970;SDS011;6550;48.650;8.774;2023-02-25T09:46:51;2.47;;;1.60;;
12970;SDS011;6550;48.650;8.774;2023-02-25T09:52:22;3.67;;;1.20;;
12970;SDS011;6550;48.650;8.774;2023-02-25T09:55:02;3.67;;;1.43;;
12970;SDS011;6550;48.650;8.774;2023-02-25T09:57:58;1.93;;;1.07;;
12970;SDS011;6550;48.650;8.774;2023-02-25T10:00:44;4.73;;;1.67;;
12970;SDS011;6550;48.650;8.774;2023-02-25T10:03:40;2.40;;;0.90;;
12970;SDS011;6550;48.650;8.774;2023-02-25T10:09:00;5.07;;;1.47;;
12970;SDS011;6550;48.650;8.774;2023-02-25T10:14:41;1.90;;;1.10;;
12970;SDS011;6550;48.650;8.774;2023-02-25T10:20:41;2.97;;;1.30;;
12970;SDS011;6550;48.650;8.774;2023-02-25T10:23:27;3.40;;;1.50;;
12970;SDS011;6550;48.650;8.774;2023-02-25T10:26:03;3.70;;;1.40;;
12970;SDS011;6550;48.650;8.774;2023-02-25T10:28:48;3.80;;;1.30;;
12970;SDS011;6550;48.650;8.774;2023-02-25T10:31:19;3.93;;;1.37;;
12970;SDS011;6550;48.650;8.774;2023-02-25T10:33:49;2.27;;;1.50;;
12970;SDS011;6550;48.650;8.774;2023-02-25T10:36:24;7.13;;;1.58;;
12970;SDS011;6550;48.650;8.774;2023-02-25T10:38:55;6.30;;;1.23;;
12970;SDS011;6550;48.650;8.774;2023-02-25T10:41:23;1.83;;;1.40;;
12970;SDS011;6550;48.650;8.774;2023-02-25T10:43:52;6.30;;;1.30;;
12970;SDS011;6550;48.650;8.774;2023-02-25T10:46:24;2.87;;;1.20;;
12970;SDS011;6550;48.650;8.774;2023-02-25T10:49:17;4.37;;;1.40;;
12970;SDS011;6550;48.650;8.774;2023-02-25T10:54:33;4.57;;;1.43;;
12970;SDS011;6550;48.650;8.774;2023-02-25T10:57:16;3.43;;;1.73;;
12970;SDS011;6550;48.650;8.774;2023-02-25T10:59:46;2.00;;;1.20;;
12970;SDS011;6550;48.650;8.774;2023-02-25T11:04:53;2.30;;;1.20;;
12970;SDS011;6550;48.650;8.774;2023-02-25T11:07:22;4.80;;;1.15;;
12970;SDS011;6550;48.650;8.774;2023-02-25T11:10:05;2.70;;;1.57;;
12970;SDS011;6550;48.650;8.774;2023-02-25T11:12:47;4.07;;;1.43;;
12970;SDS011;6550;48.650;8.774;2023-02-25T11:15:34;1.93;;;1.07;;
12970;SDS011;6550;48.650;8.774;2023-02-25T11:18:27;2.70;;;1.30;;
12970;SDS011;6550;48.650;8.774;2023-02-25T11:20:57;3.27;;;1.30;;
12970;SDS011;6550;48.650;8.774;2023-02-25T11:23:31;2.37;;;1.10;;
12970;SDS011;6550;48.650;8.774;2023-02-25T11:26:29;1.37;;;1.23;;
12970;SDS011;6550;48.650;8.774;2023-02-25T11:29:01;4.53;;;2.90;;
12970;SDS011;6550;48.650;8.774;2023-02-25T11:31:37;3.43;;;2.30;;
12970;SDS011;6550;48.650;8.774;2023-02-25T11:34:14;5.60;;;2.57;;
12970;SDS011;6550;48.650;8.774;2023-02-25T11:36:54;5.27;;;2.10;;
12970;SDS011;6550;48.650;8.774;2023-02-25T11:39:22;3.95;;;2.15;;
12970;SDS011;6550;48.650;8.774;2023-02-25T11:41:56;3.90;;;2.27;;
12970;SDS011;6550;48.650;8.774;2023-02-25T11:44:31;2.50;;;1.70;;
12970;SDS011;6550;48.650;8.774;2023-02-25T12:01:30;2.70;;;1.50;;
12970;SDS011;6550;48.650;8.774;2023-02-25T12:04:16;2.37;;;1.20;;
12970;SDS011;6550;48.650;8.774;2023-02-25T12:07:04;3.87;;;1.30;;
12970;SDS011;6550;48.650;8.774;2023-02-25T12:20:23;4.10;;;1.10;;
12970;SDS011;6550;48.650;8.774;2023-02-25T12:27:00;3.70;;;1.30;;
12970;SDS011;6550;48.650;8.774;2023-02-25T12:37:20;3.53;;;1.20;;
12970;SDS011;6550;48.650;8.774;2023-02-25T13:13:11;2.95;;;1.42;;
12970;SDS011;6550;48.650;8.774;2023-02-25T13:18:42;2.80;;;1.27;;
12970;SDS011;6550;48.650;8.774;2023-02-25T13:26:59;3.93;;;1.13;;
12970;SDS011;6550;48.650;8.774;2023-02-25T13:29:47;3.43;;;1.17;;
12970;SDS011;6550;48.650;8.774;2023-02-25T13:32:40;2.03;;;1.10;;
12970;SDS011;6550;48.650;8.774;2023-02-25T13:52:28;2.63;;;1.30;;
12970;SDS011;6550;48.650;8.774;2023-02-25T13:58:15;2.07;;;1.33;;
12970;SDS011;6550;48.650;8.774;2023-02-25T14:06:54;2.93;;;1.33;;
12970;SDS011;6550;48.650;8.774;2023-02-25T14:09:41;7.53;;;1.60;;
12970;SDS011;6550;48.650;8.774;2023-02-25T14:12:39;5.03;;;1.67;;
12970;SDS011;6550;48.650;8.774;2023-02-25T14:20:48;4.10;;;1.90;;
12970;SDS011;6550;48.650;8.774;2023-02-25T14:23:28;2.73;;;1.43;;
12970;SDS011;6550;48.650;8.774;2023-02-25T14:29:13;4.40;;;1.70;;
12970;SDS011;6550;48.650;8.774;2023-02-25T14:34:26;3.33;;;1.53;;
12970;SDS011;6550;48.650;8.774;2023-02-25T14:37:28;5.00;;;1.80;;
12970;SDS011;6550;48.650;8.774;2023-02-25T15:05:13;2.63;;;1.43;;
12970;SDS011;6550;48.650;8.774;2023-02-25T15:10:42;3.43;;;1.53;;
12970;SDS011;6550;48.650;8.774;2023-02-25T15:16:16;2.73;;;1.60;;
12970;SDS011;6550;48.650;8.774;2023-02-25T15:19:04;3.53;;;1.77;;
12970;SDS011;6550;48.650;8.774;2023-02-25T15:21:37;3.07;;;1.73;;
12970;SDS011;6550;48.650;8.774;2023-02-25T15:24:08;3.47;;;1.60;;
12970;SDS011;6550;48.650;8.774;2023-02-25T15:26:58;3.87;;;1.43;;
12970;SDS011;6550;48.650;8.774;2023-02-25T15:32:09;3.47;;;1.50;;
12970;SDS011;6550;48.650;8.774;2023-02-25T15:34:53;3.03;;;1.90;;
12970;SDS011;6550;48.650;8.774;2023-02-25T15:40:34;3.67;;;1.63;;
12970;SDS011;6550;48.650;8.774;2023-02-25T15:42:52;3.53;;;1.77;;
12970;SDS011;6550;48.650;8.774;2023-02-25T15:55:49;4.57;;;1.63;;
12970;SDS011;6550;48.650;8.774;2023-02-25T15:58:56;2.73;;;1.93;;
12970;SDS011;6550;48.650;8.774;2023-02-25T16:01:37;3.20;;;1.47;;
12970;SDS011;6550;48.650;8.774;2023-02-25T16:04:37;3.03;;;2.00;;
12970;SDS011;6550;48.650;8.774;2023-02-25T16:07:14;3.13;;;1.83;;
12970;SDS011;6550;48.650;8.774;2023-02-25T16:09:45;4.40;;;2.10;;
12970;SDS011;6550;48.650;8.774;2023-02-25T16:12:18;3.70;;;2.30;;
12970;SDS011;6550;48.650;8.774;2023-02-25T16:14:47;3.40;;;2.23;;
12970;SDS011;6550;48.650;8.774;2023-02-25T16:17:19;4.07;;;2.50;;
12970;SDS011;6550;48.650;8.774;2023-02-25T16:19:58;2.43;;;1.73;;
12970;SDS011;6550;48.650;8.774;2023-02-25T16:22:43;3.38;;;2.20;;
12970;SDS011;6550;48.650;8.774;2023-02-25T16:25:13;3.63;;;1.90;;
12970;SDS011;6550;48.650;8.774;2023-02-25T16:30:24;3.90;;;2.10;;
12970;SDS011;6550;48.650;8.774;2023-02-25T16:38:41;3.83;;;1.90;;
12970;SDS011;6550;48.650;8.774;2023-02-25T16:41:29;4.30;;;2.20;;
12970;SDS011;6550;48.650;8.774;2023-02-25T16:44:03;4.37;;;2.23;;
12970;SDS011;6550;48.650;8.774;2023-02-25T16:46:32;3.53;;;2.20;;
12970;SDS011;6550;48.650;8.774;2023-02-25T16:49:07;7.30;;;2.50;;
12970;SDS011;6550;48.650;8.774;2023-02-25T16:51:45;4.57;;;2.43;;
12970;SDS011;6550;48.650;8.774;2023-02-25T16:54:37;4.07;;;2.10;;
12970;SDS011;6550;48.650;8.774;2023-02-25T16:57:15;4.27;;;2.10;;
12970;SDS011;6550;48.650;8.774;2023-02-25T16:59:44;5.10;;;2.27;;
12970;SDS011;6550;48.650;8.774;2023-02-25T17:04:48;4.00;;;1.97;;
12970;SDS011;6550;48.650;8.774;2023-02-25T17:07:23;4.33;;;1.90;;
12970;SDS011;6550;48.650;8.774;2023-02-25T17:09:56;3.97;;;2.10;;
12970;SDS011;6550;48.650;8.774;2023-02-25T17:15:06;5.33;;;1.90;;
12970;SDS011;6550;48.650;8.774;2023-02-25T17:17:48;4.47;;;2.00;;
12970;SDS011;6550;48.650;8.774;2023-02-25T17:20:20;3.70;;;1.77;;
12970;SDS011;6550;48.650;8.774;2023-02-25T17:22:52;2.50;;;1.53;;
12970;SDS011;6550;48.650;8.774;2023-02-25T17:25:20;2.70;;;1.80;;
12970;SDS011;6550;48.650;8.774;2023-02-25T17:27:52;5.75;;;2.10;;
12970;SDS011;6550;48.650;8.774;2023-02-25T17:30:33;3.37;;;1.80;;
12970;SDS011;6550;48.650;8.774;2023-02-25T17:33:05;5.23;;;1.90;;
12970;SDS011;6550;48.650;8.774;2023-02-25T17:35:43;3.43;;;1.57;;
12970;SDS011;6550;48.650;8.774;2023-02-25T17:38:12;4.00;;;1.87;;
12970;SDS011;6550;48.650;8.774;2023-02-25T17:40:45;3.47;;;1.80;;
12970;SDS011;6550;48.650;8.774;2023-02-25T17:48:18;2.77;;;1.77;;
12970;SDS011;6550;48.650;8.774;2023-02-25T17:50:54;3.57;;;1.90;;
12970;SDS011;6550;48.650;8.774;2023-02-25T17:58:51;2.83;;;1.57;;
12970;SDS011;6550;48.650;8.774;2023-02-25T18:01:24;4.00;;;2.08;;
12970;SDS011;6550;48.650;8.774;2023-02-25T18:03:57;4.23;;;1.80;;
12970;SDS011;6550;48.650;8.774;2023-02-25T18:09:03;2.37;;;1.90;;
12970;SDS011;6550;48.650;8.774;2023-02-25T18:11:31;7.17;;;2.47;;
12970;SDS011;6550;48.650;8.774;2023-02-25T18:14:22;4.80;;;2.20;;
12970;SDS011;6550;48.650;8.774;2023-02-25T18:16:52;5.07;;;2.70;;
12970;SDS011;6550;48.650;8.774;2023-02-25T18:19:27;2.67;;;2.10;;
12970;SDS011;6550;48.650;8.774;2023-02-25T18:22:03;3.00;;;1.70;;
12970;SDS011;6550;48.650;8.774;2023-02-25T18:24:36;3.20;;;1.90;;
12970;SDS011;6550;48.650;8.774;2023-02-25T18:27:07;3.27;;;1.93;;
12970;SDS011;6550;48.650;8.774;2023-02-25T18:29:46;3.10;;;1.50;;
12970;SDS011;6550;48.650;8.774;2023-02-25T18:32:15;1.77;;;1.53;;
12970;SDS011;6550;48.650;8.774;2023-02-25T18:34:42;2.63;;;1.50;;
12970;SDS011;6550;48.650;8.774;2023-02-25T18:37:12;2.72;;;1.77;;
12970;SDS011;6550;48.650;8.774;2023-02-25T18:39:44;4.03;;;1.90;;
12970;SDS011;6550;48.650;8.774;2023-02-25T18:42:15;2.13;;;1.47;;
12970;SDS011;6550;48.650;8.774;2023-02-25T18:44:45;2.87;;;1.47;;
12970;SDS011;6550;48.650;8.774;2023-02-25T18:47:12;2.33;;;1.33;;
12970;SDS011;6550;48.650;8.774;2023-02-25T18:49:42;1.67;;;1.47;;
12970;SDS011;6550;48.650;8.774;2023-02-25T18:52:22;3.97;;;1.60;;
12970;SDS011;6550;48.650;8.774;2023-02-25T18:54:50;3.00;;;1.30;;
12970;SDS011;6550;48.650;8.774;2023-02-25T18:57:19;2.23;;;1.30;;
12970;SDS011;6550;48.650;8.774;2023-02-25T18:59:51;2.20;;;1.50;;
12970;SDS011;6550;48.650;8.774;2023-02-25T19:02:28;2.53;;;1.40;;
12970;SDS011;6550;48.650;8.774;2023-02-25T19:05:00;2.07;;;1.63;;
12970;SDS011;6550;48.650;8.774;2023-02-25T19:07:29;3.70;;;1.20;;
12970;SDS011;6550;48.650;8.774;2023-02-25T19:10:02;2.00;;;1.40;;
12970;SDS011;6550;48.650;8.774;2023-02-25T19:12:29;3.85;;;1.60;;
12970;SDS011;6550;48.650;8.774;2023-02-25T19:14:59;2.33;;;1.50;;
12970;SDS011;6550;48.650;8.774;2023-02-25T19:17:32;2.90;;;1.73;;
12970;SDS011;6550;48.650;8.774;2023-02-25T19:19:59;2.40;;;1.50;;
12970;SDS011;6550;48.650;8.774;2023-02-25T19:22:26;2.10;;;1.10;;
12970;SDS011;6550;48.650;8.774;2023-02-25T19:24:53;2.57;;;1.30;;
12970;SDS011;6550;48.650;8.774;2023-02-25T19:27:20;3.07;;;1.20;;
12970;SDS011;6550;48.650;8.774;2023-02-25T19:29:50;4.27;;;1.70;;
12970;SDS011;6550;48.650;8.774;2023-02-25T19:32:19;2.17;;;1.20;;